New Rochelle, NY (10804)

12:30 AM EST on November 24, 2014 (GMT -0500)
Town Of Mamaroneck Fire Department | Change Station
CLOSE
Current Station
Personal Weather Station
Location: Larchmont, NY
Elevation: 89 ft
Nearby Weather Stations
Active Advisory: Coastal Flood Statement

Elev 89 ft 40.94 °N, 73.76 °W | Updated 13 seconds ago

Overcast
Overcast
48.3 °F
Feels Like 48 °F
N
1.0
Wind Variable Wind from East
Gusts 5.0 mph

Today
High -- | Low -- °F
--% Chance of Precip.
Yesterday
High -- | Low -- °F
Precip. -- in
6:52 AM 4:30 PM
Waxing Crescent, 4% visible
Pressure 30.01 in
Visibility 8.0 miles
Clouds Mostly Cloudy 3500 ft
Windchill 48 °F
Dew Point 44 °F
Humidity 84%
Rainfall 0.00 in
Snow Depth Not available.
UV 0 out of 12
Pollen .10 out of 12
Air Quality Not available.
Flu Activity Not available.
METAR KHPN 240456Z 09003KT 8SM BKN035 08/06 A3000 RMK AO2 SLP162 T00830056 401330044

More Conditions Fewer Conditions

Pressure 30.01 in
Visibility 8.0 miles
Clouds Mostly Cloudy 3500 ft
Windchill 48 °F
Dew Point 44 °F
Humidity 84%
Rainfall 0.00 in
Snow Depth Not available.
UV 0 out of 12
Pollen .10 out of 12
Air Quality Not available.
Flu Activity Not available.
METAR KHPN 240456Z 09003KT 8SM BKN035 08/06 A3000 RMK AO2 SLP162 T00830056 401330044

More Conditions Fewer Conditions

10-Day Weather Forecast

Almanac

Astronomy

Nov. 24, 2014 Rise Set
Actual Time
Civil Twilight
Nautical Twilight
Astronomical Twilight
Moon
Length of Visible Light
Length of Day
Tomorrow will be .
, % of the Moon is Illuminated

Today's Extremes

State Highs State Lows

Community

WunderPhotos

Upload Photos

1,773,279 photos uploaded!

WunderBlogs® & News

Nearby

Air Quality

  Air Quality AQ Index Pollutant
Not available.

Snow Depth

Station Depth Elevation

Earthquake Activity

City Distance Mag. Time & Date
Minimum magnitude displayed is 2.5.

Coastal Water Temperatures

Place Temperature

Nearby Weather Stations